Terminal Aerodrome Forecast
Issued by NWS Portland, OR

Home | Current Version | Previous Version | Text Only | Print | Product List | Glossary On
Versions: 1 2 3 4 5 6 7 8 9 10 11 12 13 14 15 16 17 18 19 20 21 22 23 24 25 26 27 28 29 30 31 32 33 34 35 36 37 38 39 40 41 42 43 44 45 46 47 48 49 50
666
FTUS46 KPQR 130543
TAFPDX
TAF
KPDX 130543Z 1306/1406 21007KT P6SM VCSH FEW020 SCT060
     FM130900 21005KT P6SM VCSH SCT025 OVC050
     FM131300 17005KT P6SM BKN025 OVC040
     FM132000 15010KT 6SM -RA BR OVC030
     FM140000 18010KT 5SM -RA BR BKN015 OVC025=

USA.gov is the U.S. government's official web portal to all federal, state and local government web resources and services.